Terminal Aerodrome Forecast
Issued by NWS Charleston, WV

Home | Current Version | Previous Version | Text Only | Print | Product List | Glossary On
Versions: 1 2 3 4 5 6 7 8 9 10 11 12 13 14 15 16 17 18 19 20 21 22 23
000
FTUS41 KRLX 180800 AAA
TAFBKW
TAF AMD
KBKW 180826Z 1808/1906 00000KT P6SM SCT035
     FM181200 00000KT P6SM BKN015
     FM181300 00000KT P6SM SCT015
     FM181400 04003KT P6SM SCT025
     FM181800 01006KT P6SM SCT035
     FM190400 07008KT P6SM BKN035
     FM190500 08009KT P6SM BKN025=

USA.gov is the U.S. government's official web portal to all federal, state and local government web resources and services.